createdAt,value
2018-04-22T00:00:57.905Z,18.96
2018-04-22T00:03:26.655Z,19.15
2018-04-22T00:05:54.950Z,19.59
2018-04-22T00:08:23.246Z,19.34
2018-04-22T00:10:51.542Z,19.01
2018-04-22T00:13:19.818Z,19.22
2018-04-22T00:15:48.120Z,19.04
2018-04-22T00:18:16.399Z,19.22
2018-04-22T00:20:44.692Z,19.25
2018-04-22T00:23:12.994Z,19.01
2018-04-22T00:25:41.296Z,19.36
2018-04-22T00:28:09.591Z,20.05
2018-04-22T00:30:37.896Z,19.44
2018-04-22T00:33:06.179Z,19.38
2018-04-22T00:35:34.487Z,18.95
2018-04-22T00:38:02.777Z,18.85
2018-04-22T00:40:31.059Z,18.61
2018-04-22T00:42:59.354Z,18.74
2018-04-22T00:45:27.638Z,19.57
2018-04-22T00:47:55.926Z,19.19
2018-04-22T00:50:24.215Z,18.74
2018-04-22T00:52:52.499Z,19.34
2018-04-22T00:55:20.778Z,19.16
2018-04-22T00:57:49.074Z,19.57
2018-04-22T01:00:17.364Z,19.18
2018-04-22T01:02:45.662Z,18.66
2018-04-22T01:05:13.947Z,18.53
2018-04-22T01:07:42.252Z,18.74
2018-04-22T01:10:10.535Z,19.19
2018-04-22T01:12:38.835Z,19.25
2018-04-22T01:15:07.122Z,19.37
2018-04-22T01:17:35.418Z,19.03
2018-04-22T01:20:03.714Z,19.10
2018-04-22T01:22:32.270Z,18.80
2018-04-22T01:25:00.559Z,18.90
2018-04-22T01:27:28.834Z,18.80
2018-04-22T01:29:57.130Z,19.18
2018-04-22T01:32:25.412Z,18.49
2018-04-22T01:34:53.707Z,18.38
2018-04-22T01:37:22.000Z,18.41
2018-04-22T01:39:50.307Z,18.21
2018-04-22T01:42:18.591Z,18.54
2018-04-22T01:44:46.889Z,18.25
2018-04-22T01:47:15.162Z,17.99
2018-04-22T01:49:43.459Z,18.06
2018-04-22T01:52:11.755Z,18.03
2018-04-22T01:54:40.049Z,18.09
2018-04-22T01:57:08.334Z,18.03
2018-04-22T01:59:36.626Z,18.32
2018-04-22T02:02:04.906Z,17.75
2018-04-22T02:04:33.202Z,18.13
2018-04-22T02:07:01.866Z,17.75
2018-04-22T02:09:30.166Z,17.93
2018-04-22T02:11:58.463Z,17.60
2018-04-22T02:14:26.735Z,18.34
2018-04-22T02:16:55.034Z,18.09
2018-04-22T02:19:23.322Z,18.30
2018-04-22T02:21:51.626Z,18.24
2018-04-22T02:24:19.906Z,17.93
2018-04-22T02:26:48.203Z,18.32
2018-04-22T02:29:16.489Z,17.79
2018-04-22T02:31:44.775Z,17.97
2018-04-22T02:34:13.060Z,17.97
2018-04-22T02:36:41.359Z,17.64
2018-04-22T02:39:09.655Z,17.65
2018-04-22T02:41:37.956Z,18.16
2018-04-22T02:44:06.238Z,17.71
2018-04-22T02:46:34.531Z,17.80
2018-04-22T02:49:02.819Z,17.59
2018-04-22T02:51:31.114Z,17.31
2018-04-22T02:53:59.398Z,17.47
2018-04-22T02:56:28.046Z,17.27
2018-04-22T02:58:56.335Z,17.68
2018-04-22T03:01:24.628Z,17.53
2018-04-22T03:03:52.919Z,17.63
2018-04-22T03:06:21.206Z,17.79
2018-04-22T03:08:49.524Z,17.67
2018-04-22T03:11:17.801Z,17.63
2018-04-22T03:13:46.099Z,17.56
2018-04-22T03:16:14.378Z,17.59
2018-04-22T03:18:42.682Z,17.79
2018-04-22T03:21:10.985Z,17.75
2018-04-22T03:23:39.277Z,17.92
2018-04-22T03:26:07.563Z,17.73
2018-04-22T03:28:35.866Z,17.84
2018-04-22T03:31:04.154Z,17.90
2018-04-22T03:33:32.459Z,17.85
2018-04-22T03:36:00.738Z,17.23
2018-04-22T03:38:29.038Z,17.56
2018-04-22T03:40:57.334Z,17.79
2018-04-22T03:43:25.631Z,17.23
2018-04-22T03:45:53.897Z,17.06
2018-04-22T03:48:22.182Z,17.39
2018-04-22T03:50:50.486Z,17.85
2018-04-22T03:53:19.011Z,18.12
2018-04-22T03:55:47.310Z,18.64
2018-04-22T03:58:15.602Z,18.12
2018-04-22T04:00:43.902Z,18.32
2018-04-22T04:03:12.194Z,17.81
2018-04-22T04:05:40.492Z,17.90
2018-04-22T04:08:08.773Z,17.23
2018-04-22T04:10:37.073Z,17.50
2018-04-22T04:13:05.362Z,17.26
2018-04-22T04:15:33.654Z,17.02
2018-04-22T04:21:32.550Z,17.21
2018-04-22T04:27:49.226Z,18.11
2018-04-22T04:30:17.506Z,18.67
2018-04-22T04:32:45.810Z,19.06
2018-04-22T04:35:14.102Z,18.40
2018-04-22T04:37:42.432Z,18.07
2018-04-22T04:40:10.685Z,18.80
2018-04-22T04:42:38.990Z,18.19
2018-04-22T04:45:07.270Z,17.89
2018-04-22T04:47:35.565Z,18.15
2018-04-22T04:50:03.851Z,18.64
2018-04-22T04:52:32.139Z,18.51
2018-04-22T04:55:00.426Z,18.20
2018-04-22T04:57:28.723Z,18.15
2018-04-22T04:59:57.003Z,18.09
2018-04-22T05:02:25.333Z,18.19
2018-04-22T05:04:53.626Z,17.37
2018-04-22T05:07:21.919Z,17.04
2018-04-22T05:09:50.206Z,16.93
2018-04-22T05:12:18.492Z,16.78
2018-04-22T05:14:46.790Z,16.83
2018-04-22T05:17:15.074Z,17.47
2018-04-22T05:19:43.383Z,17.00
2018-04-22T05:22:11.674Z,16.98
2018-04-22T05:24:39.964Z,16.64
2018-04-22T05:27:08.253Z,16.75
2018-04-22T05:29:36.549Z,16.75
2018-04-22T05:32:04.839Z,16.77
2018-04-22T05:34:33.138Z,16.71
2018-04-22T05:37:01.423Z,16.68
2018-04-22T05:39:29.714Z,16.80
2018-04-22T05:41:57.999Z,17.00
2018-04-22T05:44:26.286Z,16.75
2018-04-22T05:46:54.578Z,16.81
2018-04-22T05:49:22.862Z,16.86
2018-04-22T05:51:51.167Z,16.95
2018-04-22T05:54:19.713Z,16.92
2018-04-22T05:56:48.069Z,17.03
2018-04-22T05:59:16.349Z,16.93
2018-04-22T06:01:44.654Z,17.06
2018-04-22T06:04:12.941Z,17.06
2018-04-22T06:06:41.249Z,17.21
2018-04-22T06:09:09.539Z,17.21
2018-04-22T06:11:37.834Z,17.30
2018-04-22T06:14:06.114Z,17.41
2018-04-22T06:16:34.418Z,17.42
2018-04-22T06:19:02.857Z,17.55
2018-04-22T06:21:31.344Z,17.70
2018-04-22T06:23:59.613Z,17.84
2018-04-22T06:26:27.975Z,18.00
2018-04-22T06:28:59.729Z,18.25
2018-04-22T06:31:28.035Z,18.50
2018-04-22T06:33:56.431Z,18.65
2018-04-22T06:36:24.711Z,18.55
2018-04-22T06:38:53.018Z,18.78
2018-04-22T06:41:21.306Z,18.79
2018-04-22T06:43:49.598Z,18.80
2018-04-22T06:46:17.884Z,18.92
2018-04-22T06:48:46.178Z,18.95
2018-04-22T06:51:14.465Z,19.28
2018-04-22T06:53:42.762Z,19.51
2018-04-22T06:56:11.056Z,19.45
2018-04-22T06:58:40.327Z,19.47
2018-04-22T07:01:08.620Z,19.72
2018-04-22T07:03:36.922Z,19.77
2018-04-22T07:06:05.210Z,19.98
2018-04-22T07:08:33.511Z,20.27
2018-04-22T07:11:01.793Z,20.28
2018-04-22T07:13:30.131Z,20.26
2018-04-22T07:15:58.395Z,20.50
2018-04-22T07:18:26.740Z,20.92
2018-04-22T07:20:55.043Z,20.76
2018-04-22T07:23:23.326Z,20.84
2018-04-22T07:25:51.655Z,21.34
2018-04-22T07:28:19.936Z,21.13
2018-04-22T07:30:49.210Z,21.17
2018-04-22T07:33:17.504Z,21.40
2018-04-22T07:35:45.803Z,21.72
2018-04-22T07:38:16.034Z,21.96
2018-04-22T07:40:44.367Z,22.21
2018-04-22T07:43:12.624Z,22.14
2018-04-22T07:45:40.900Z,21.98
2018-04-22T07:48:09.190Z,21.90
2018-04-22T07:50:37.484Z,21.78
2018-04-22T07:53:05.769Z,21.87
2018-04-22T07:55:34.062Z,22.01
2018-04-22T07:58:02.367Z,22.06
2018-04-22T08:00:34.243Z,22.26
2018-04-22T08:03:02.652Z,22.44
2018-04-22T08:05:30.943Z,22.68
2018-04-22T08:07:59.238Z,22.68
2018-04-22T08:10:27.610Z,23.36
2018-04-22T08:12:55.911Z,23.26
2018-04-22T08:15:24.207Z,23.53
2018-04-22T08:17:52.639Z,23.85
2018-04-22T08:20:20.896Z,24.28
2018-04-22T08:22:49.187Z,24.05
2018-04-22T08:25:17.470Z,23.94
2018-04-22T08:27:45.773Z,24.06
2018-04-22T08:30:14.057Z,24.31
2018-04-22T08:32:42.355Z,24.45
2018-04-22T08:35:10.672Z,24.77
2018-04-22T08:37:38.963Z,25.18
2018-04-22T08:40:07.243Z,24.13
2018-04-22T08:42:35.542Z,25.52
2018-04-22T08:45:03.948Z,25.52
2018-04-22T08:47:32.243Z,25.05
2018-04-22T08:50:00.520Z,25.75
2018-04-22T08:52:29.090Z,24.14
2018-04-22T08:55:08.103Z,25.22
2018-04-22T08:57:38.819Z,25.18
2018-04-22T09:00:07.110Z,25.64
2018-04-22T09:02:35.394Z,25.71
2018-04-22T09:05:03.690Z,25.22
2018-04-22T09:07:35.579Z,25.35
2018-04-22T09:10:03.886Z,26.01
2018-04-22T09:12:32.194Z,26.22
2018-04-22T09:15:00.491Z,26.18
2018-04-22T09:17:28.807Z,26.58
2018-04-22T09:19:57.095Z,26.64
2018-04-22T09:22:25.381Z,26.70
2018-04-22T09:24:55.588Z,26.99
2018-04-22T09:27:23.878Z,27.26
2018-04-22T09:29:52.166Z,27.55
2018-04-22T09:32:20.465Z,27.73
2018-04-22T09:34:48.754Z,27.70
2018-04-22T09:37:17.034Z,26.85
2018-04-22T09:39:45.329Z,26.98
2018-04-22T09:42:13.598Z,27.28
2018-04-22T09:44:41.874Z,28.00
2018-04-22T09:47:10.162Z,28.07
2018-04-22T09:49:38.440Z,28.20
2018-04-22T09:52:06.738Z,28.13
2018-04-22T09:54:35.022Z,28.51
2018-04-22T09:57:03.311Z,28.59
2018-04-22T09:59:31.591Z,28.07
2018-04-22T10:01:59.902Z,28.51
2018-04-22T10:04:28.971Z,28.44
2018-04-22T10:06:57.258Z,28.75
2018-04-22T10:09:25.540Z,29.51
2018-04-22T10:11:53.825Z,28.74
2018-04-22T10:14:22.896Z,28.55
2018-04-22T10:16:51.185Z,28.19
2018-04-22T10:19:19.465Z,28.23
2018-04-22T10:21:47.750Z,29.19
2018-04-22T10:24:16.030Z,29.59
2018-04-22T10:26:44.343Z,29.31
2018-04-22T10:29:12.622Z,29.08
2018-04-22T10:31:40.895Z,29.30
2018-04-22T10:34:09.186Z,29.12
2018-04-22T10:36:37.473Z,27.89
2018-04-22T10:39:05.786Z,28.74
2018-04-22T10:41:34.066Z,28.77
2018-04-22T10:44:02.347Z,28.53
2018-04-22T10:46:30.622Z,28.49
2018-04-22T10:48:58.906Z,29.40
2018-04-22T10:51:27.198Z,29.53
2018-04-22T10:53:55.477Z,29.73
2018-04-22T10:56:23.747Z,30.00
2018-04-22T10:58:53.023Z,29.15
2018-04-22T11:01:21.303Z,29.25
2018-04-22T11:03:49.586Z,29.05
2018-04-22T11:06:17.865Z,29.41
2018-04-22T11:08:46.146Z,29.50
2018-04-22T11:11:14.422Z,30.20
2018-04-22T11:13:42.700Z,29.83
2018-04-22T11:16:10.986Z,29.75
2018-04-22T11:18:39.262Z,29.84
2018-04-22T11:21:07.559Z,30.00
2018-04-22T11:23:35.846Z,29.99
2018-04-22T11:26:04.138Z,30.24
2018-04-22T11:28:32.435Z,29.92
2018-04-22T11:31:00.733Z,30.34
2018-04-22T11:33:29.014Z,30.22
2018-04-22T11:35:57.309Z,30.48
2018-04-22T11:38:25.590Z,30.49
2018-04-22T11:40:53.876Z,30.33
2018-04-22T11:43:22.150Z,29.76
2018-04-22T11:45:50.435Z,30.14
2018-04-22T11:48:18.723Z,29.18
2018-04-22T11:50:47.180Z,29.96
2018-04-22T11:53:15.502Z,30.16
2018-04-22T11:55:43.802Z,29.76
2018-04-22T11:58:12.074Z,30.06
2018-04-22T12:00:40.358Z,30.45
2018-04-22T12:03:09.574Z,30.63
2018-04-22T12:05:37.856Z,30.15
2018-04-22T12:08:06.152Z,30.43
2018-04-22T12:10:34.438Z,30.04
2018-04-22T12:13:02.721Z,30.10
2018-04-22T12:15:30.998Z,30.71
2018-04-22T12:17:59.278Z,30.35
2018-04-22T12:20:27.568Z,30.32
2018-04-22T12:22:55.824Z,30.35
2018-04-22T12:25:24.090Z,29.84
2018-04-22T12:27:52.380Z,29.74
2018-04-22T12:30:20.654Z,29.47
2018-04-22T12:32:49.122Z,29.96
2018-04-22T12:35:17.401Z,30.34
2018-04-22T12:37:45.692Z,29.90
2018-04-22T12:40:13.974Z,29.82
2018-04-22T12:42:42.254Z,29.52
2018-04-22T12:45:10.538Z,29.57
2018-04-22T12:47:38.814Z,29.75
2018-04-22T12:50:07.097Z,29.58
2018-04-22T12:52:35.373Z,29.69
2018-04-22T12:55:03.818Z,30.09
2018-04-22T12:57:32.094Z,30.41
2018-04-22T13:00:00.713Z,30.70
2018-04-22T13:02:28.986Z,30.76
2018-04-22T13:04:57.259Z,30.52
2018-04-22T13:07:25.840Z,30.47
2018-04-22T13:09:54.127Z,30.50
2018-04-22T13:12:22.399Z,30.50
2018-04-22T13:14:50.678Z,30.45
2018-04-22T13:17:19.999Z,30.02
2018-04-22T13:19:48.266Z,29.83
2018-04-22T13:22:16.554Z,30.08
2018-04-22T13:24:44.826Z,30.56
2018-04-22T13:27:13.106Z,30.37
2018-04-22T13:29:41.379Z,30.42
2018-04-22T13:32:09.646Z,30.74
2018-04-22T13:34:37.926Z,30.75
2018-04-22T13:37:06.205Z,30.78
2018-04-22T13:39:34.482Z,30.68
2018-04-22T13:42:02.758Z,30.37
2018-04-22T13:44:31.387Z,30.26
2018-04-22T13:46:59.662Z,30.17
2018-04-22T13:49:27.935Z,30.46
2018-04-22T13:51:56.218Z,30.33
2018-04-22T13:54:24.555Z,30.12
2018-04-22T13:56:52.803Z,30.10
2018-04-22T13:59:21.080Z,30.19
2018-04-22T14:01:49.702Z,30.53
2018-04-22T14:04:17.974Z,30.75
2018-04-22T14:06:46.251Z,31.03
2018-04-22T14:09:14.527Z,30.83
2018-04-22T14:11:42.793Z,30.63
2018-04-22T14:14:11.070Z,30.86
2018-04-22T14:16:39.349Z,30.54
2018-04-22T14:19:07.630Z,30.65
2018-04-22T14:21:36.037Z,31.10
2018-04-22T14:24:04.356Z,31.17
2018-04-22T14:26:32.625Z,31.13
2018-04-22T14:29:00.906Z,31.16
2018-04-22T14:31:29.187Z,30.80
2018-04-22T14:33:57.459Z,30.81
2018-04-22T14:36:25.739Z,30.61
2018-04-22T14:38:54.008Z,30.10
2018-04-22T14:41:22.310Z,29.70
2018-04-22T14:46:58.751Z,29.50
2018-04-22T14:49:27.038Z,29.73
2018-04-22T14:51:55.351Z,29.76
2018-04-22T14:54:23.621Z,29.71
2018-04-22T14:56:51.889Z,29.67
2018-04-22T14:59:20.166Z,29.66
2018-04-22T15:01:48.446Z,29.65
2018-04-22T15:04:16.725Z,29.67
2018-04-22T15:06:44.995Z,29.47
2018-04-22T15:09:13.282Z,29.93
2018-04-22T15:11:41.574Z,30.13
2018-04-22T15:14:09.854Z,30.17
2018-04-22T15:16:38.141Z,30.14
2018-04-22T15:19:06.406Z,29.98
2018-04-22T15:21:34.690Z,29.88
2018-04-22T15:24:02.962Z,29.78
2018-04-22T15:26:31.237Z,30.03
2018-04-22T15:28:59.518Z,29.47
2018-04-22T15:31:27.789Z,27.80
2018-04-22T15:33:56.094Z,28.24
2018-04-22T15:36:24.405Z,27.54
2018-04-22T15:38:52.667Z,28.01
2018-04-22T15:41:20.956Z,27.79
2018-04-22T15:43:49.234Z,27.73
2018-04-22T15:46:17.524Z,27.41
2018-04-22T15:48:45.799Z,27.60
2018-04-22T15:51:14.072Z,27.63
2018-04-22T15:53:42.353Z,27.53
2018-04-22T15:56:10.633Z,27.83
2018-04-22T15:58:38.910Z,27.69
2018-04-22T16:01:07.189Z,27.81
2018-04-22T16:03:35.461Z,27.76
2018-04-22T16:06:03.770Z,27.75
2018-04-22T16:08:32.055Z,27.66
2018-04-22T16:11:00.321Z,27.81
2018-04-22T16:13:28.640Z,27.54
2018-04-22T16:15:56.913Z,27.58
2018-04-22T16:18:25.202Z,27.53
2018-04-22T16:20:53.466Z,27.62
2018-04-22T16:23:21.754Z,27.77
2018-04-22T16:25:50.037Z,27.91
2018-04-22T16:28:18.314Z,27.93
2018-04-22T16:30:46.596Z,27.89
2018-04-22T16:33:14.878Z,27.87
2018-04-22T16:35:43.148Z,27.77
2018-04-22T16:38:11.454Z,27.84
2018-04-22T16:40:39.721Z,27.76
2018-04-22T16:43:08.015Z,27.68
2018-04-22T16:45:36.290Z,27.54
2018-04-22T16:48:04.570Z,27.48
2018-04-22T16:50:32.914Z,27.67
2018-04-22T16:53:01.125Z,27.69
2018-04-22T16:55:29.408Z,27.70
2018-04-22T16:57:57.685Z,27.59
2018-04-22T17:00:25.962Z,27.63
2018-04-22T17:02:54.243Z,27.45
2018-04-22T17:05:22.522Z,27.61
2018-04-22T17:07:50.789Z,27.51
2018-04-22T17:10:19.063Z,27.46
2018-04-22T17:12:47.341Z,27.39
2018-04-22T17:15:15.610Z,27.42
2018-04-22T17:17:43.903Z,27.43
2018-04-22T17:20:12.170Z,27.20
2018-04-22T17:22:40.455Z,27.29
2018-04-22T17:25:08.726Z,27.20
2018-04-22T17:27:37.035Z,27.21
2018-04-22T17:30:05.318Z,27.09
2018-04-22T17:32:33.596Z,27.15
2018-04-22T17:35:01.874Z,26.93
2018-04-22T17:37:30.158Z,26.94
2018-04-22T17:39:58.446Z,26.87
2018-04-22T17:42:26.723Z,26.91
2018-04-22T17:44:55.014Z,26.81
2018-04-22T17:47:23.285Z,26.82
2018-04-22T17:49:51.586Z,26.70
2018-04-22T17:52:19.878Z,26.76
2018-04-22T17:54:48.171Z,26.75
2018-04-22T17:57:16.455Z,26.60
2018-04-22T17:59:44.776Z,26.69
2018-04-22T18:02:13.051Z,26.53
2018-04-22T18:04:41.323Z,26.54
2018-04-22T18:07:09.626Z,26.40
2018-04-22T18:09:37.895Z,26.46
2018-04-22T18:12:06.194Z,26.33
2018-04-22T18:14:34.525Z,26.28
2018-04-22T18:17:02.815Z,26.28
2018-04-22T18:19:31.086Z,26.25
2018-04-22T18:21:59.385Z,26.23
2018-04-22T18:24:27.670Z,26.19
2018-04-22T18:26:55.950Z,26.06
2018-04-22T18:29:24.233Z,26.04
2018-04-22T18:31:52.514Z,25.94
2018-04-22T18:34:20.822Z,26.00
2018-04-22T18:36:49.098Z,25.87
2018-04-22T18:39:17.408Z,25.85
2018-04-22T18:41:45.690Z,25.88
2018-04-22T18:44:13.978Z,25.67
2018-04-22T18:46:42.274Z,25.78
2018-04-22T18:49:10.551Z,25.77
2018-04-22T18:51:38.848Z,25.62
2018-04-22T18:54:07.134Z,25.62
2018-04-22T18:56:35.412Z,25.63
2018-04-22T18:59:03.677Z,25.42
2018-04-22T19:01:31.980Z,25.60
2018-04-22T19:04:00.258Z,25.57
2018-04-22T19:06:28.583Z,25.44
2018-04-22T19:08:56.864Z,25.39
2018-04-22T19:11:25.164Z,25.36
2018-04-22T19:13:53.450Z,25.34
2018-04-22T19:16:21.772Z,25.21
2018-04-22T19:18:50.077Z,25.28
2018-04-22T19:21:19.292Z,25.19
2018-04-22T19:23:47.576Z,24.98
2018-04-22T19:26:15.847Z,25.01
2018-04-22T19:28:44.144Z,25.00
2018-04-22T19:31:12.420Z,25.10
2018-04-22T19:33:40.750Z,25.01
2018-04-22T19:36:09.039Z,25.00
2018-04-22T19:38:37.331Z,24.91
2018-04-22T19:41:05.617Z,24.82
2018-04-22T19:43:33.907Z,24.87
2018-04-22T19:46:02.197Z,24.81
2018-04-22T19:48:30.474Z,24.70
2018-04-22T19:50:58.790Z,24.57
2018-04-22T19:53:27.082Z,24.56
2018-04-22T19:55:55.375Z,24.71
2018-04-22T19:58:23.678Z,24.63
2018-04-22T20:00:51.963Z,24.55
2018-04-22T20:03:20.254Z,24.52
2018-04-22T20:05:48.536Z,24.60
2018-04-22T20:08:16.826Z,24.58
2018-04-22T20:10:45.106Z,24.53
2018-04-22T20:13:13.407Z,24.37
2018-04-22T20:15:41.694Z,24.53
2018-04-22T20:18:09.976Z,24.38
2018-04-22T20:20:38.269Z,24.44
2018-04-22T20:23:06.550Z,24.43
2018-04-22T20:25:35.154Z,24.37
2018-04-22T20:28:03.439Z,24.30
2018-04-22T20:30:31.737Z,24.24
2018-04-22T20:33:00.036Z,24.43
2018-04-22T20:35:28.331Z,24.36
2018-04-22T20:37:56.660Z,24.12
2018-04-22T20:40:25.049Z,24.27
2018-04-22T20:42:53.354Z,24.12
2018-04-22T20:45:21.630Z,23.83
2018-04-22T20:47:50.033Z,23.85
2018-04-22T20:50:18.649Z,23.81
2018-04-22T20:52:47.021Z,23.78
2018-04-22T20:55:15.306Z,23.65
2018-04-22T20:57:43.654Z,23.51
2018-04-22T21:00:11.948Z,23.62
2018-04-22T21:02:40.226Z,23.32
2018-04-22T21:05:08.516Z,23.30
2018-04-22T21:07:36.811Z,23.29
2018-04-22T21:10:05.097Z,23.26
2018-04-22T21:12:33.374Z,23.31
2018-04-22T21:15:01.656Z,23.30
2018-04-22T21:17:29.942Z,23.33
2018-04-22T21:19:58.224Z,23.24
2018-04-22T21:22:26.507Z,23.31
2018-04-22T21:24:54.806Z,23.33
2018-04-22T21:27:23.130Z,23.15
2018-04-22T21:29:51.419Z,23.18
2018-04-22T21:32:19.695Z,23.21
2018-04-22T21:34:47.987Z,23.08
2018-04-22T21:37:16.266Z,23.06
2018-04-22T21:39:44.570Z,23.14
2018-04-22T21:42:12.848Z,23.13
2018-04-22T21:44:41.134Z,23.12
2018-04-22T21:47:09.410Z,23.01
2018-04-22T21:49:37.704Z,23.07
2018-04-22T21:52:05.998Z,23.10
2018-04-22T21:54:34.294Z,23.01
2018-04-22T21:57:02.580Z,22.94
2018-04-22T21:59:30.851Z,23.00
2018-04-22T22:01:59.149Z,22.91
2018-04-22T22:04:27.464Z,23.00
2018-04-22T22:06:55.728Z,22.80
2018-04-22T22:09:24.006Z,22.88
2018-04-22T22:11:52.297Z,22.83
2018-04-22T22:14:20.583Z,22.83
2018-04-22T22:16:48.886Z,22.84
2018-04-22T22:19:17.184Z,22.62
2018-04-22T22:21:45.471Z,22.68
2018-04-22T22:24:13.759Z,22.66
2018-04-22T22:26:42.034Z,22.61
2018-04-22T22:29:10.322Z,22.51
2018-04-22T22:31:38.606Z,22.52
2018-04-22T22:34:06.899Z,22.60
2018-04-22T22:36:35.183Z,22.51
2018-04-22T22:39:03.469Z,22.55
2018-04-22T22:41:31.758Z,22.40
2018-04-22T22:44:00.043Z,22.38
2018-04-22T22:46:28.331Z,22.21
2018-04-22T22:48:56.633Z,22.12
2018-04-22T22:51:24.923Z,22.17
2018-04-22T22:53:53.201Z,21.93
2018-04-22T22:56:21.474Z,22.02
2018-04-22T22:58:49.763Z,21.78
2018-04-22T23:01:18.047Z,21.72
2018-04-22T23:03:46.336Z,21.68
2018-04-22T23:06:14.615Z,21.58
2018-04-22T23:08:42.919Z,21.70
2018-04-22T23:11:11.213Z,21.82
2018-04-22T23:13:39.489Z,21.68
2018-04-22T23:16:07.778Z,21.63
2018-04-22T23:18:36.050Z,21.63
2018-04-22T23:21:04.341Z,21.69
2018-04-22T23:23:32.618Z,21.75
2018-04-22T23:26:01.271Z,21.76
2018-04-22T23:28:29.878Z,21.70
2018-04-22T23:30:58.163Z,21.55
2018-04-22T23:33:26.453Z,21.62
2018-04-22T23:35:54.730Z,21.64
2018-04-22T23:38:23.022Z,21.80
2018-04-22T23:40:51.348Z,21.70
2018-04-22T23:43:19.634Z,21.63
2018-04-22T23:45:47.906Z,21.76
2018-04-22T23:48:16.200Z,21.83
2018-04-22T23:50:44.491Z,21.92
2018-04-22T23:53:12.770Z,21.88
2018-04-22T23:55:41.058Z,21.96
2018-04-22T23:58:09.342Z,21.82
